Time;durP1;ratioP1;P1;durP2;ratioP2;P2;SDS_P1;SDS_P2;PMS_P1;PMS_P2;Temp;Humidity;BMP_temperature;BMP_pressure;BME280_temperature;BME280_humidity;BME280_pressure;Samples;Min_cycle;Max_cycle;Signal;HPM_P1;HPM_P2
2021/11/06 00:00:38;;;;;;;7.13;2.50;;;8.50;99.90;;;;;;5036328;28;20033;-63
2021/11/06 00:03:06;;;;;;;4.95;0.95;;;8.60;99.90;;;;;;5039654;28;20384;-63
2021/11/06 00:05:35;;;;;;;2.75;0.85;;;8.60;99.90;;;;;;5037490;28;20033;-64
2021/11/06 00:08:00;;;;;;;2.97;1.08;;;8.50;99.90;;;;;;5036889;28;20118;-62
2021/11/06 00:10:26;;;;;;;4.28;0.80;;;8.50;99.90;;;;;;5037318;28;20493;-65
2021/11/06 00:12:52;;;;;;;5.05;1.45;;;8.50;99.90;;;;;;5041125;28;20053;-62
2021/11/06 00:15:18;;;;;;;2.47;0.90;;;8.60;99.90;;;;;;5039825;28;20044;-62
2021/11/06 00:17:44;;;;;;;3.58;0.90;;;8.50;99.90;;;;;;5042084;28;20492;-62
2021/11/06 00:20:12;;;;;;;9.55;1.30;;;8.60;99.90;;;;;;5039648;28;20060;-62
2021/11/06 00:22:38;;;;;;;4.10;1.13;;;8.60;99.90;;;;;;5041919;28;20037;-63
2021/11/06 00:25:06;;;;;;;6.72;1.63;;;8.60;99.90;;;;;;5021637;28;20053;-62
2021/11/06 00:27:32;;;;;;;3.65;1.25;;;8.60;99.90;;;;;;5042956;28;20048;-62
2021/11/06 00:29:58;;;;;;;2.35;1.10;;;8.60;99.90;;;;;;5021996;28;20441;-62
2021/11/06 00:32:24;;;;;;;3.30;1.45;;;8.50;99.90;;;;;;5042715;28;20132;-62
2021/11/06 00:34:49;;;;;;;3.58;1.17;;;8.60;99.90;;;;;;5041098;28;20037;-62
2021/11/06 00:37:16;;;;;;;3.20;1.15;;;8.50;99.90;;;;;;5039373;28;20044;-61
2021/11/06 00:39:41;;;;;;;3.28;0.90;;;8.50;99.90;;;;;;5041896;28;20111;-63
2021/11/06 00:42:07;;;;;;;7.03;1.02;;;8.40;99.90;;;;;;5039090;28;20451;-62
2021/11/06 00:44:32;;;;;;;4.00;1.20;;;8.40;99.90;;;;;;5040916;28;20029;-62
2021/11/06 00:46:58;;;;;;;5.25;1.30;;;8.40;99.90;;;;;;5039873;28;20051;-63
2021/11/06 00:49:24;;;;;;;5.68;1.25;;;8.40;99.90;;;;;;5038771;28;20067;-62
2021/11/06 00:51:50;;;;;;;4.40;1.10;;;8.40;99.90;;;;;;5038620;28;20482;-62
2021/11/06 00:54:17;;;;;;;4.05;1.52;;;8.40;99.90;;;;;;5041964;28;20164;-63
2021/11/06 00:56:42;;;;;;;7.32;2.00;;;8.40;99.90;;;;;;5020789;28;20025;-62
2021/11/06 00:59:08;;;;;;;11.90;1.50;;;8.40;99.90;;;;;;5041589;28;20029;-62
2021/11/06 01:01:36;;;;;;;6.43;1.70;;;8.40;99.90;;;;;;5038924;28;20665;-62
2021/11/06 01:04:03;;;;;;;8.02;1.55;;;8.40;99.90;;;;;;5022895;28;20042;-63
2021/11/06 01:06:28;;;;;;;4.68;1.38;;;8.40;99.90;;;;;;5039575;28;20120;-62
2021/11/06 01:08:54;;;;;;;5.20;1.35;;;8.40;99.90;;;;;;5037769;28;20108;-62
2021/11/06 01:11:20;;;;;;;4.70;2.35;;;8.40;99.90;;;;;;5042941;28;20057;-62
2021/11/06 01:13:45;;;;;;;8.48;2.15;;;8.50;99.90;;;;;;5037743;28;20037;-63
2021/11/06 01:16:11;;;;;;;9.68;1.70;;;8.40;99.90;;;;;;5038091;28;20033;-62
2021/11/06 01:18:37;;;;;;;6.07;2.45;;;8.40;99.90;;;;;;5041829;28;20040;-64
2021/11/06 01:21:03;;;;;;;3.28;1.48;;;8.40;99.90;;;;;;5040900;28;20037;-63
2021/11/06 01:23:29;;;;;;;7.97;2.38;;;8.40;99.90;;;;;;5021150;28;20055;-62
2021/11/06 01:25:55;;;;;;;9.50;2.22;;;8.40;99.90;;;;;;5036865;28;20033;-62
2021/11/06 01:28:20;;;;;;;5.45;1.92;;;8.40;99.90;;;;;;5038959;28;20040;-63
2021/11/06 01:30:46;;;;;;;4.90;2.05;;;8.40;99.90;;;;;;5040116;28;20036;-62
2021/11/06 01:33:11;;;;;;;6.63;3.15;;;8.40;99.90;;;;;;5038216;28;20693;-62
2021/11/06 01:35:37;;;;;;;7.63;2.30;;;8.40;99.90;;;;;;5041083;28;20114;-62
2021/11/06 01:38:03;;;;;;;11.95;2.22;;;8.40;99.90;;;;;;5038086;28;20030;-63
2021/11/06 01:40:28;;;;;;;4.97;2.03;;;8.30;99.90;;;;;;5022495;28;20033;-62
2021/11/06 01:42:54;;;;;;;5.95;2.72;;;8.40;99.90;;;;;;5038667;28;20048;-63
2021/11/06 01:45:22;;;;;;;5.38;2.10;;;8.40;99.90;;;;;;5021129;28;20404;-62
2021/11/06 01:47:47;;;;;;;4.80;2.33;;;8.40;99.90;;;;;;5039575;28;20102;-63
2021/11/06 01:50:14;;;;;;;5.18;2.67;;;8.40;99.90;;;;;;5038804;28;20477;-64
2021/11/06 01:52:40;;;;;;;6.57;2.45;;;8.40;99.90;;;;;;5037690;28;20152;-63
2021/11/06 01:55:07;;;;;;;5.70;2.72;;;8.40;99.90;;;;;;5041040;28;20033;-62
2021/11/06 01:57:34;;;;;;;9.73;2.58;;;8.40;99.90;;;;;;5037927;28;20469;-64
2021/11/06 02:00:00;;;;;;;6.68;2.80;;;8.40;99.90;;;;;;5039220;28;20086;-61
2021/11/06 02:02:27;;;;;;;7.25;1.95;;;8.50;99.90;;;;;;5037720;28;20371;-62
2021/11/06 02:04:52;;;;;;;10.18;2.63;;;8.40;99.90;;;;;;5038368;28;20124;-62
2021/11/06 02:07:19;;;;;;;11.75;2.45;;;8.40;99.90;;;;;;5018888;28;20109;-62
2021/11/06 02:09:44;;;;;;;5.45;1.77;;;8.40;99.90;;;;;;5036961;28;20083;-62
2021/11/06 02:12:10;;;;;;;12.57;2.47;;;8.50;99.90;;;;;;5023264;28;20118;-63
2021/11/06 02:14:37;;;;;;;7.93;2.72;;;8.40;99.90;;;;;;5034503;28;20559;-62
2021/11/06 02:17:03;;;;;;;5.97;2.00;;;8.40;99.90;;;;;;5040154;28;20162;-62
2021/11/06 02:19:31;;;;;;;6.50;2.13;;;8.40;99.90;;;;;;5037876;28;20124;-63
2021/11/06 02:21:59;;;;;;;6.30;2.63;;;8.40;99.90;;;;;;5038714;28;20057;-63
2021/11/06 02:24:25;;;;;;;9.23;2.70;;;8.50;99.90;;;;;;5038426;28;20040;-63
2021/11/06 02:26:51;;;;;;;13.30;3.25;;;8.50;99.90;;;;;;5036393;28;20029;-62
2021/11/06 02:29:18;;;;;;;4.32;2.33;;;8.40;99.90;;;;;;5037780;28;20490;-62
2021/11/06 02:31:44;;;;;;;5.47;2.55;;;8.40;99.90;;;;;;5039252;28;20529;-63
2021/11/06 02:34:10;;;;;;;6.88;3.15;;;8.50;99.90;;;;;;5018007;28;20036;-62
2021/11/06 02:36:38;;;;;;;9.95;2.90;;;8.40;99.90;;;;;;5039613;28;20523;-61
2021/11/06 02:39:07;;;;;;;8.20;2.60;;;8.40;99.90;;;;;;5036207;28;20036;-61
2021/11/06 02:41:33;;;;;;;5.00;2.60;;;8.30;99.90;;;;;;5021648;28;20040;-63
2021/11/06 02:44:09;;;;;;;4.80;2.40;;;8.30;99.90;;;;;;5037136;28;20046;-62
2021/11/06 02:46:39;;;;;;;6.78;2.60;;;8.30;99.90;;;;;;5032536;28;20029;-62
2021/11/06 02:49:07;;;;;;;8.02;3.33;;;8.30;99.90;;;;;;5033313;28;20090;-62
2021/11/06 02:51:32;;;;;;;7.28;3.30;;;8.20;99.90;;;;;;5036832;28;20034;-63
2021/11/06 02:53:58;;;;;;;9.63;2.55;;;8.20;99.90;;;;;;5038691;28;20115;-62
2021/11/06 02:56:26;;;;;;;7.80;3.08;;;8.20;99.90;;;;;;5037855;28;20040;-62
2021/11/06 02:58:52;;;;;;;11.13;2.78;;;8.20;99.90;;;;;;5037362;28;20120;-62
2021/11/06 03:01:17;;;;;;;5.72;2.88;;;8.20;99.90;;;;;;5038727;28;20060;-62
2021/11/06 03:03:43;;;;;;;6.20;2.88;;;8.10;99.90;;;;;;5036944;28;20455;-62
2021/11/06 03:06:09;;;;;;;9.77;2.60;;;8.20;99.90;;;;;;5039314;28;20052;-62
2021/11/06 03:08:34;;;;;;;7.88;3.08;;;8.10;99.90;;;;;;5036713;28;20056;-61
2021/11/06 03:11:00;;;;;;;6.20;2.70;;;8.20;99.90;;;;;;5018576;28;20068;-63
2021/11/06 03:13:26;;;;;;;9.65;3.20;;;8.20;99.90;;;;;;5039071;28;20047;-62
2021/11/06 03:15:51;;;;;;;9.60;3.20;;;8.20;99.90;;;;;;5037003;28;20098;-62
2021/11/06 03:18:17;;;;;;;7.28;3.00;;;8.30;99.90;;;;;;5037719;28;20029;-62
2021/11/06 03:20:43;;;;;;;9.93;3.28;;;8.30;99.90;;;;;;5038411;28;20029;-62
2021/11/06 03:23:08;;;;;;;5.97;2.85;;;8.30;99.90;;;;;;5018384;28;20022;-63
2021/11/06 03:25:34;;;;;;;7.22;2.58;;;8.30;99.90;;;;;;5039426;28;20549;-62
2021/11/06 03:28:00;;;;;;;6.15;2.63;;;8.30;99.90;;;;;;5034937;28;20085;-62
2021/11/06 03:30:25;;;;;;;7.82;2.95;;;8.30;99.90;;;;;;5037077;28;20040;-62
2021/11/06 03:32:52;;;;;;;8.65;3.42;;;8.30;99.90;;;;;;5019938;28;20086;-62
2021/11/06 03:35:17;;;;;;;9.25;3.45;;;8.30;99.90;;;;;;5037658;28;20088;-62
2021/11/06 03:37:43;;;;;;;9.30;3.20;;;8.30;99.90;;;;;;5018800;28;20037;-63
2021/11/06 03:40:11;;;;;;;7.60;2.90;;;8.30;99.90;;;;;;5038469;28;20097;-63
2021/11/06 03:42:38;;;;;;;7.85;3.72;;;8.30;99.90;;;;;;5036097;28;20041;-62
2021/11/06 03:45:04;;;;;;;7.80;3.10;;;8.40;99.90;;;;;;5039328;28;20033;-65
2021/11/06 03:47:29;;;;;;;11.75;3.40;;;8.30;99.90;;;;;;5035188;28;20132;-62
2021/11/06 03:49:55;;;;;;;10.77;3.45;;;8.30;99.90;;;;;;5038988;28;20615;-62
2021/11/06 03:52:21;;;;;;;7.28;3.50;;;8.30;99.90;;;;;;5042177;28;20038;-64
2021/11/06 03:54:47;;;;;;;7.68;3.22;;;8.40;99.90;;;;;;5022478;28;20539;-62
2021/11/06 03:57:13;;;;;;;11.55;3.80;;;8.30;99.90;;;;;;5040262;28;20037;-64
2021/11/06 03:59:38;;;;;;;8.32;3.53;;;8.30;99.90;;;;;;5041574;28;20033;-62
2021/11/06 04:02:05;;;;;;;8.82;3.72;;;8.30;99.90;;;;;;5039609;28;20045;-62
2021/11/06 04:04:30;;;;;;;7.38;3.40;;;8.20;99.90;;;;;;5043537;28;20505;-63
2021/11/06 04:06:56;;;;;;;11.13;3.03;;;8.20;99.90;;;;;;5038835;28;20144;-61
2021/11/06 04:09:21;;;;;;;10.93;3.63;;;8.20;99.90;;;;;;5042019;28;20378;-63
2021/11/06 04:11:47;;;;;;;8.48;3.33;;;8.20;99.90;;;;;;5040454;28;20037;-64
2021/11/06 04:14:13;;;;;;;6.53;3.58;;;8.20;99.90;;;;;;5040879;28;20094;-62
2021/11/06 04:16:38;;;;;;;7.47;3.80;;;8.20;99.90;;;;;;5041655;28;20029;-63
2021/11/06 04:19:04;;;;;;;8.20;3.85;;;8.10;99.90;;;;;;5039152;28;20047;-62
2021/11/06 04:21:31;;;;;;;6.15;3.05;;;8.20;99.90;;;;;;5042954;28;20040;-63
2021/11/06 04:23:57;;;;;;;7.68;3.17;;;8.10;99.90;;;;;;5038650;28;20032;-62
2021/11/06 04:26:22;;;;;;;5.53;3.20;;;8.10;99.90;;;;;;5039385;28;20460;-63
2021/11/06 04:28:48;;;;;;;8.82;3.58;;;8.20;99.90;;;;;;5040472;28;20037;-63
2021/11/06 04:31:14;;;;;;;8.48;3.45;;;8.20;99.90;;;;;;5041266;28;20044;-62
2021/11/06 04:33:39;;;;;;;16.35;3.90;;;8.20;99.90;;;;;;5039867;28;20124;-62
2021/11/06 04:36:08;;;;;;;5.75;3.42;;;8.20;99.90;;;;;;5041172;28;20044;-63
2021/11/06 04:38:35;;;;;;;11.68;4.10;;;8.20;99.90;;;;;;5038787;28;20493;-62
2021/11/06 04:41:00;;;;;;;13.27;4.35;;;8.20;99.90;;;;;;5042330;28;20033;-64
2021/11/06 04:43:26;;;;;;;11.75;3.85;;;8.20;99.90;;;;;;5021522;28;20507;-62
2021/11/06 04:45:51;;;;;;;8.30;4.38;;;8.20;99.90;;;;;;5040998;28;20033;-62
2021/11/06 04:48:17;;;;;;;8.85;3.92;;;8.20;99.90;;;;;;5039807;28;20438;-62
2021/11/06 04:50:42;;;;;;;7.47;3.83;;;8.20;99.90;;;;;;5038161;28;20036;-62
2021/11/06 04:53:08;;;;;;;9.75;4.70;;;8.30;99.90;;;;;;5039638;28;20647;-61
2021/11/06 04:55:34;;;;;;;9.57;4.13;;;8.20;99.90;;;;;;5041608;28;20037;-64
2021/11/06 04:57:59;;;;;;;9.80;4.47;;;8.30;99.90;;;;;;5037018;28;20033;-62
2021/11/06 05:00:25;;;;;;;10.63;5.20;;;8.20;99.90;;;;;;5042161;28;20032;-62
2021/11/06 05:02:51;;;;;;;8.30;3.95;;;8.30;99.90;;;;;;5038735;28;20022;-62
2021/11/06 05:05:17;;;;;;;13.93;4.50;;;8.30;99.90;;;;;;5040850;28;20029;-62
2021/11/06 05:07:43;;;;;;;9.63;4.15;;;8.20;99.90;;;;;;5039885;28;20029;-62
2021/11/06 05:10:09;;;;;;;13.45;4.90;;;8.20;99.90;;;;;;5039383;28;20536;-62
2021/11/06 05:12:35;;;;;;;8.50;4.68;;;8.30;99.90;;;;;;5040957;28;20033;-62
2021/11/06 05:15:02;;;;;;;9.30;4.38;;;8.30;99.90;;;;;;5038380;28;20045;-64
2021/11/06 05:17:28;;;;;;;7.88;4.00;;;8.30;99.90;;;;;;5038247;28;20116;-62
2021/11/06 05:19:53;;;;;;;10.63;5.22;;;8.30;99.90;;;;;;5028834;28;20137;-63
2021/11/06 05:22:20;;;;;;;10.15;4.53;;;8.30;99.90;;;;;;5021487;28;20041;-63
2021/11/06 05:24:45;;;;;;;11.07;4.50;;;8.30;99.90;;;;;;5036853;28;20481;-62
2021/11/06 05:27:11;;;;;;;14.23;5.13;;;8.40;99.90;;;;;;5040106;28;20039;-61
2021/11/06 05:29:37;;;;;;;9.35;4.72;;;8.40;99.90;;;;;;5037641;28;20568;-62
2021/11/06 05:32:03;;;;;;;13.25;5.30;;;8.40;99.90;;;;;;5038457;28;20062;-62
2021/11/06 05:34:28;;;;;;;16.08;5.28;;;8.40;99.90;;;;;;5041586;28;20029;-61
2021/11/06 05:36:54;;;;;;;9.60;4.68;;;8.40;99.90;;;;;;5036854;28;20491;-62
2021/11/06 05:39:20;;;;;;;16.80;5.32;;;8.40;99.90;;;;;;5037813;28;20087;-62
2021/11/06 05:41:45;;;;;;;12.00;4.75;;;8.50;99.90;;;;;;5038252;28;20029;-68
2021/11/06 05:44:11;;;;;;;11.45;5.10;;;8.50;99.90;;;;;;5039821;28;20122;-61
2021/11/06 05:46:36;;;;;;;10.68;5.30;;;8.50;99.90;;;;;;5039614;28;20065;-62
2021/11/06 05:49:02;;;;;;;11.52;5.00;;;8.50;99.90;;;;;;5039828;28;20512;-63
2021/11/06 05:51:28;;;;;;;13.13;5.40;;;8.50;99.90;;;;;;5038134;28;20485;-62
2021/11/06 05:53:54;;;;;;;10.50;5.15;;;8.50;99.90;;;;;;5038834;28;20041;-63
2021/11/06 05:56:19;;;;;;;11.90;4.85;;;8.50;99.90;;;;;;5040942;28;20029;-62
2021/11/06 05:58:46;;;;;;;11.57;5.65;;;8.50;99.90;;;;;;5037909;28;20401;-63
2021/11/06 06:01:12;;;;;;;10.10;5.15;;;8.50;99.90;;;;;;5039358;28;20038;-63
2021/11/06 06:03:37;;;;;;;13.07;5.32;;;8.60;99.90;;;;;;5038980;28;20036;-63
2021/11/06 06:06:04;;;;;;;11.55;5.55;;;8.60;99.90;;;;;;5041526;28;20086;-61
2021/11/06 06:08:29;;;;;;;13.10;5.43;;;8.60;99.90;;;;;;5037453;28;20021;-63
2021/11/06 06:10:55;;;;;;;11.95;4.95;;;8.60;99.90;;;;;;5039845;28;20074;-62
2021/11/06 06:13:21;;;;;;;13.07;5.57;;;8.60;99.90;;;;;;5037504;28;20025;-62
2021/11/06 06:15:46;;;;;;;10.25;5.22;;;8.60;99.90;;;;;;5039922;28;20044;-61
2021/11/06 06:18:12;;;;;;;17.58;5.68;;;8.60;99.90;;;;;;5037690;28;20025;-62
2021/11/06 06:20:38;;;;;;;13.88;6.30;;;8.60;99.90;;;;;;5038614;28;20029;-64
2021/11/06 06:23:04;;;;;;;10.63;4.72;;;8.70;99.90;;;;;;5038962;28;20029;-61
2021/11/06 06:25:30;;;;;;;12.27;5.63;;;8.70;99.90;;;;;;5036850;28;20516;-61
2021/11/06 06:27:55;;;;;;;18.77;6.07;;;8.70;99.90;;;;;;5039213;28;20042;-61
2021/11/06 06:30:21;;;;;;;15.18;6.03;;;8.60;99.90;;;;;;5040554;28;20037;-61
2021/11/06 06:32:47;;;;;;;12.25;5.28;;;8.70;99.90;;;;;;5036469;28;20579;-65
2021/11/06 06:35:15;;;;;;;13.73;5.80;;;8.70;99.90;;;;;;5039237;28;20037;-62
2021/11/06 06:37:40;;;;;;;13.93;6.07;;;8.70;99.90;;;;;;5038024;28;20033;-61
2021/11/06 06:40:09;;;;;;;15.57;5.20;;;8.70;99.90;;;;;;5037515;28;20056;-62
2021/11/06 06:42:35;;;;;;;15.77;5.97;;;8.70;99.90;;;;;;5020728;28;20504;-63
2021/11/06 06:45:00;;;;;;;10.77;5.43;;;8.80;99.90;;;;;;5037245;28;20523;-62
2021/11/06 06:47:26;;;;;;;11.40;5.00;;;8.70;99.90;;;;;;5040039;28;20119;-64
2021/11/06 06:49:51;;;;;;;16.08;5.57;;;8.70;99.90;;;;;;5038918;28;20124;-66
2021/11/06 06:52:18;;;;;;;14.43;6.57;;;8.70;99.90;;;;;;5037085;28;20037;-63
2021/11/06 06:54:44;;;;;;;21.13;5.90;;;8.70;99.90;;;;;;5039080;28;20120;-65
2021/11/06 06:57:09;;;;;;;15.85;5.88;;;8.70;99.90;;;;;;5037714;28;20057;-63
2021/11/06 06:59:35;;;;;;;23.45;6.97;;;8.70;99.90;;;;;;5037621;28;20512;-63
2021/11/06 07:02:02;;;;;;;15.05;5.55;;;8.70;99.90;;;;;;5038329;28;20064;-63
2021/11/06 07:04:28;;;;;;;12.32;5.57;;;8.70;99.90;;;;;;5037412;28;20029;-65
2021/11/06 07:06:54;;;;;;;14.90;5.95;;;8.80;99.90;;;;;;5036915;28;20044;-64
2021/11/06 07:09:20;;;;;;;12.50;5.82;;;8.80;99.90;;;;;;5039913;28;20029;-63
2021/11/06 07:11:47;;;;;;;12.50;5.43;;;8.70;99.90;;;;;;5036258;28;20033;-64
2021/11/06 07:14:12;;;;;;;13.18;5.25;;;8.80;99.90;;;;;;5038734;28;20124;-63
2021/11/06 07:16:38;;;;;;;17.25;7.05;;;8.70;99.90;;;;;;5037379;28;20572;-64
2021/11/06 07:19:04;;;;;;;13.02;5.93;;;8.80;99.90;;;;;;5037137;28;20136;-62
2021/11/06 07:21:30;;;;;;;16.45;6.20;;;8.70;99.90;;;;;;5024694;28;20032;-62
2021/11/06 07:23:56;;;;;;;17.55;6.47;;;8.70;99.90;;;;;;5042745;28;20038;-64
2021/11/06 07:26:21;;;;;;;14.18;5.97;;;8.70;99.90;;;;;;5046667;28;20055;-60
2021/11/06 07:28:47;;;;;;;15.35;6.13;;;8.70;99.90;;;;;;5037582;28;20033;-63
2021/11/06 07:31:13;;;;;;;18.48;6.32;;;8.70;99.90;;;;;;5043434;28;20092;-62
2021/11/06 07:33:38;;;;;;;16.55;6.63;;;8.80;99.90;;;;;;5045952;28;20056;-63
2021/11/06 07:36:04;;;;;;;28.50;6.50;;;8.80;99.90;;;;;;5044299;28;20056;-66
2021/11/06 07:38:30;;;;;;;20.73;6.57;;;8.80;99.90;;;;;;5045212;28;20070;-61
2021/11/06 07:40:56;;;;;;;22.88;7.07;;;8.80;99.90;;;;;;5042683;28;20608;-64
2021/11/06 07:43:21;;;;;;;18.98;6.88;;;8.90;99.90;;;;;;5043717;28;20051;-61
2021/11/06 07:45:47;;;;;;;22.10;7.93;;;8.90;99.90;;;;;;5036501;28;20489;-65
2021/11/06 07:48:13;;;;;;;20.55;6.57;;;8.90;99.90;;;;;;5038665;28;20033;-61
2021/11/06 07:50:38;;;;;;;20.67;6.95;;;8.90;99.90;;;;;;5034197;28;20109;-61
2021/11/06 07:53:04;;;;;;;14.23;5.70;;;9.00;99.90;;;;;;5036924;28;20110;-62
2021/11/06 07:55:30;;;;;;;15.70;6.07;;;9.00;99.90;;;;;;5038552;28;20045;-62
2021/11/06 07:57:55;;;;;;;16.88;6.18;;;9.10;99.90;;;;;;5023324;28;20037;-63
2021/11/06 08:00:21;;;;;;;16.42;6.00;;;9.10;99.90;;;;;;5033384;28;20040;-62
2021/11/06 08:02:47;;;;;;;23.48;6.80;;;9.10;99.90;;;;;;5037079;28;20493;-61
2021/11/06 08:05:15;;;;;;;22.35;7.55;;;9.10;99.90;;;;;;5035561;28;20056;-61
2021/11/06 08:07:41;;;;;;;19.60;5.78;;;9.10;99.90;;;;;;5038269;28;20120;-61
2021/11/06 08:10:08;;;;;;;16.25;5.57;;;9.10;99.90;;;;;;5040218;28;20167;-61
2021/11/06 08:12:38;;;;;;;16.75;6.00;;;9.10;99.90;;;;;;5041275;28;20497;-60
2021/11/06 08:15:05;;;;;;;20.83;6.93;;;9.10;99.90;;;;;;5042433;28;20045;-61
2021/11/06 08:17:30;;;;;;;18.77;5.60;;;9.20;99.90;;;;;;5037940;28;20037;-61
2021/11/06 08:19:56;;;;;;;13.32;5.45;;;9.10;99.90;;;;;;5041554;28;20566;-61
2021/11/06 08:22:22;;;;;;;25.65;7.00;;;9.20;99.90;;;;;;5044264;28;20033;-60
2021/11/06 08:24:48;;;;;;;20.05;5.68;;;9.20;99.90;;;;;;5042079;28;20737;-61
2021/11/06 08:27:14;;;;;;;20.08;7.28;;;9.20;99.90;;;;;;5036811;28;20504;-64
2021/11/06 08:29:40;;;;;;;15.73;5.55;;;9.30;99.90;;;;;;5044888;28;20439;-62
2021/11/06 08:32:06;;;;;;;14.68;6.20;;;9.30;99.90;;;;;;5038559;28;20045;-61
2021/11/06 08:34:32;;;;;;;20.50;5.68;;;9.30;99.90;;;;;;5036733;28;20041;-62
2021/11/06 08:36:57;;;;;;;18.52;6.72;;;9.30;99.90;;;;;;5039929;28;20496;-63
2021/11/06 08:39:23;;;;;;;18.23;5.70;;;9.40;99.90;;;;;;5039547;28;20649;-61
2021/11/06 08:41:50;;;;;;;16.70;6.78;;;9.50;99.90;;;;;;5041518;28;20037;-63
2021/11/06 08:44:16;;;;;;;19.85;5.95;;;9.50;99.90;;;;;;5039028;28;20045;-66
2021/11/06 08:46:44;;;;;;;23.30;5.97;;;9.60;99.90;;;;;;5041083;28;20030;-61
2021/11/06 08:49:10;;;;;;;19.40;5.10;;;9.70;99.90;;;;;;5030708;28;20103;-61
2021/11/06 08:51:36;;;;;;;20.15;5.30;;;9.80;99.90;;;;;;5010920;28;20048;-62
2021/11/06 08:54:02;;;;;;;13.02;4.65;;;9.80;99.90;;;;;;5027221;28;20050;-66
2021/11/06 08:56:29;;;;;;;16.13;4.57;;;9.90;99.90;;;;;;5032374;28;20485;-63
2021/11/06 08:58:55;;;;;;;20.73;5.93;;;10.00;99.90;;;;;;5036409;28;20037;-63
2021/11/06 09:01:21;;;;;;;12.88;5.40;;;10.00;99.90;;;;;;5038880;28;20033;-61
2021/11/06 09:03:46;;;;;;;14.40;5.05;;;10.00;99.90;;;;;;5035220;28;20119;-62
2021/11/06 09:06:12;;;;;;;17.08;4.72;;;9.90;99.90;;;;;;5040727;28;20033;-61
2021/11/06 09:08:42;;;;;;;10.50;4.90;;;9.90;99.90;;;;;;5036111;28;20029;-64
2021/11/06 09:11:10;;;;;;;14.55;4.68;;;9.90;99.90;;;;;;5036087;28;20032;-61
2021/11/06 09:13:37;;;;;;;21.65;5.63;;;9.90;99.90;;;;;;5038024;28;20121;-61
2021/11/06 09:16:09;;;;;;;13.40;4.30;;;9.90;99.90;;;;;;5039651;28;20121;-61
2021/11/06 09:18:35;;;;;;;12.20;5.07;;;10.00;99.90;;;;;;5038114;28;20028;-62
2021/11/06 09:21:01;;;;;;;15.63;5.07;;;10.10;99.90;;;;;;5021150;28;20033;-60
2021/11/06 09:23:27;;;;;;;16.85;4.43;;;10.20;99.90;;;;;;5039282;28;20033;-64
2021/11/06 09:25:53;;;;;;;11.40;4.25;;;10.10;99.90;;;;;;5033808;28;20044;-60
2021/11/06 09:28:19;;;;;;;16.17;4.75;;;10.20;99.90;;;;;;5011427;28;20037;-63
2021/11/06 09:30:46;;;;;;;14.23;4.15;;;10.30;99.90;;;;;;5029062;28;20044;-64
2021/11/06 09:33:11;;;;;;;12.30;4.30;;;10.30;99.90;;;;;;5008684;28;20522;-61
2021/11/06 09:35:37;;;;;;;11.50;4.13;;;10.40;99.90;;;;;;5028011;28;20032;-60
2021/11/06 09:38:03;;;;;;;12.13;4.05;;;10.40;99.90;;;;;;5010504;28;20067;-62
2021/11/06 09:40:28;;;;;;;10.27;4.03;;;10.50;99.90;;;;;;5026669;28;20044;-61
2021/11/06 09:42:54;;;;;;;14.55;5.32;;;10.50;99.90;;;;;;5026889;28;20025;-63
2021/11/06 09:45:20;;;;;;;10.10;3.60;;;10.50;99.90;;;;;;5010421;28;20489;-61
2021/11/06 09:47:47;;;;;;;8.48;3.53;;;10.50;99.90;;;;;;5008351;28;20033;-61
2021/11/06 09:50:18;;;;;;;13.18;2.97;;;10.60;99.90;;;;;;5027913;28;20025;-61
2021/11/06 09:52:48;;;;;;;11.48;3.28;;;10.60;99.90;;;;;;5028833;28;20040;-62
2021/11/06 09:55:18;;;;;;;11.75;2.85;;;10.60;99.90;;;;;;5027054;28;20567;-63
2021/11/06 09:57:43;;;;;;;13.17;4.17;;;10.70;99.90;;;;;;5025611;28;20091;-62
2021/11/06 10:00:10;;;;;;;8.05;2.67;;;10.60;99.90;;;;;;5027720;28;20281;-64
2021/11/06 10:02:36;;;;;;;9.57;3.42;;;10.60;99.90;;;;;;5026439;28;20033;-61
2021/11/06 10:05:02;;;;;;;8.77;3.10;;;10.60;99.90;;;;;;5027509;28;20044;-65
2021/11/06 10:07:28;;;;;;;11.90;3.17;;;10.60;99.90;;;;;;5027342;28;20137;-63
2021/11/06 10:10:16;;;;;;;11.43;3.03;;;10.70;99.90;;;;;;5009756;28;20128;-62
2021/11/06 10:12:49;;;;;;;13.60;3.05;;;10.70;99.90;;;;;;5026516;28;20044;-61
2021/11/06 10:15:17;;;;;;;11.68;2.83;;;10.60;99.90;;;;;;5026866;28;20493;-61
2021/11/06 10:17:42;;;;;;;11.30;3.25;;;10.60;99.90;;;;;;5026517;28;20136;-63
2021/11/06 10:20:24;;;;;;;7.93;2.65;;;10.60;99.90;;;;;;5026477;28;20117;-61
2021/11/06 10:22:52;;;;;;;10.73;4.15;;;10.60;99.90;;;;;;5026049;28;20122;-63
2021/11/06 10:25:21;;;;;;;11.25;4.05;;;10.50;99.90;;;;;;5027396;28;20036;-60
2021/11/06 10:27:59;;;;;;;9.90;3.70;;;10.50;99.90;;;;;;5031657;28;20033;-63
2021/11/06 10:30:34;;;;;;;10.85;3.17;;;10.50;99.90;;;;;;5038118;28;20040;-62
2021/11/06 10:33:18;;;;;;;9.93;3.35;;;10.50;99.90;;;;;;5035120;28;20037;-62
2021/11/06 10:35:46;;;;;;;11.88;3.75;;;10.50;99.90;;;;;;5033182;28;20040;-64
2021/11/06 10:38:24;;;;;;;12.40;4.20;;;10.50;99.90;;;;;;5039680;28;20137;-61
2021/11/06 10:40:52;;;;;;;12.13;3.65;;;10.60;99.90;;;;;;5037512;28;20033;-60
2021/11/06 10:43:21;;;;;;;9.80;3.47;;;10.70;99.90;;;;;;5040310;28;20063;-63
2021/11/06 10:45:49;;;;;;;11.38;3.08;;;10.70;99.90;;;;;;5038397;28;20421;-63
2021/11/06 10:48:17;;;;;;;13.27;3.38;;;10.90;99.90;;;;;;5037365;28;20801;-61
2021/11/06 10:50:59;;;;;;;9.00;3.00;;;10.90;99.90;;;;;;5037635;28;20037;-62
2021/11/06 10:53:44;;;;;;;7.40;3.20;;;10.90;99.90;;;;;;5039383;28;20041;-63
2021/11/06 10:56:13;;;;;;;11.98;3.38;;;10.90;99.90;;;;;;5034253;28;20421;-61
2021/11/06 10:58:39;;;;;;;13.50;3.65;;;10.90;99.90;;;;;;5034866;28;20105;-60
2021/11/06 11:01:11;;;;;;;11.73;3.92;;;10.90;99.90;;;;;;5041506;28;20029;-61
2021/11/06 11:03:40;;;;;;;10.52;3.55;;;10.80;99.90;;;;;;5034703;28;20405;-66
2021/11/06 11:06:09;;;;;;;9.73;2.75;;;10.70;99.90;;;;;;5035019;28;20029;-61
2021/11/06 11:08:56;;;;;;;11.55;2.63;;;10.70;99.90;;;;;;5039397;28;20121;-62
2021/11/06 11:11:27;;;;;;;14.32;3.00;;;10.90;99.90;;;;;;5040426;28;20047;-61
2021/11/06 11:14:02;;;;;;;9.98;3.03;;;10.90;99.90;;;;;;5032078;28;20674;-66
2021/11/06 11:16:30;;;;;;;8.18;2.30;;;11.10;99.90;;;;;;5032154;28;20033;-62
2021/11/06 11:19:00;;;;;;;11.27;2.67;;;11.30;99.90;;;;;;5032069;28;21086;-64
2021/11/06 11:21:47;;;;;;;10.20;2.58;;;11.40;99.90;;;;;;5032333;28;20109;-63
2021/11/06 11:24:18;;;;;;;6.75;3.05;;;11.50;99.90;;;;;;5032273;28;20026;-61
2021/11/06 11:26:47;;;;;;;7.78;2.72;;;11.50;99.90;;;;;;5033610;28;20135;-64
2021/11/06 11:29:18;;;;;;;10.00;3.45;;;11.50;99.90;;;;;;5032914;28;20029;-61
2021/11/06 11:31:45;;;;;;;10.52;2.97;;;11.50;99.90;;;;;;5031875;28;20037;-62
2021/11/06 11:34:11;;;;;;;7.90;2.65;;;11.60;99.90;;;;;;5016133;28;20034;-62
2021/11/06 11:36:39;;;;;;;7.68;1.95;;;11.60;99.90;;;;;;5033140;28;20103;-62
2021/11/06 11:39:09;;;;;;;9.55;2.65;;;11.50;99.90;;;;;;5032626;28;20037;-61
2021/11/06 11:41:46;;;;;;;5.90;1.98;;;11.60;99.90;;;;;;5014016;28;20025;-62
2021/11/06 11:44:41;;;;;;;5.28;2.67;;;11.60;99.90;;;;;;5026534;28;20083;-65
2021/11/06 11:47:24;;;;;;;7.90;2.45;;;11.70;99.90;;;;;;5029322;28;20044;-60
2021/11/06 11:49:57;;;;;;;7.45;2.40;;;11.70;99.90;;;;;;5000852;28;20059;-61
2021/11/06 11:52:35;;;;;;;6.57;1.95;;;11.80;99.90;;;;;;5033366;28;20037;-63
2021/11/06 11:55:29;;;;;;;4.65;2.13;;;11.90;99.90;;;;;;5016870;28;20056;-63
2021/11/06 11:58:08;;;;;;;5.35;1.95;;;12.00;99.90;;;;;;5031367;28;20033;-65
2021/11/06 12:00:36;;;;;;;5.15;1.92;;;12.00;99.90;;;;;;5029024;28;20032;-62
2021/11/06 12:03:04;;;;;;;7.13;1.77;;;12.00;99.90;;;;;;5002120;28;20033;-60
2021/11/06 12:05:35;;;;;;;7.22;1.90;;;12.00;99.90;;;;;;5041870;28;20036;-61
2021/11/06 12:08:09;;;;;;;4.38;1.90;;;12.00;99.90;;;;;;5011346;28;20041;-61
2021/11/06 12:10:45;;;;;;;8.50;2.05;;;12.10;99.90;;;;;;5028866;28;20041;-62
2021/11/06 12:13:30;;;;;;;3.53;1.70;;;12.00;99.90;;;;;;5029750;28;20043;-61
2021/11/06 12:16:00;;;;;;;8.63;3.08;;;12.10;99.90;;;;;;5031012;28;20103;-60
2021/11/06 12:18:34;;;;;;;6.43;3.08;;;12.10;99.90;;;;;;5029937;28;20044;-62
2021/11/06 12:21:15;;;;;;;4.60;2.15;;;12.10;99.90;;;;;;5029810;28;20036;-63
2021/11/06 12:23:44;;;;;;;;;;;12.10;99.90;;;;;;5028896;28;20037;-64
2021/11/06 12:26:33;;;;;;;5.05;2.00;;;12.10;99.90;;;;;;5029124;28;19952;-62
2021/11/06 12:29:11;;;;;;;13.45;2.30;;;12.10;99.90;;;;;;5028370;28;21175;-66
2021/11/06 12:31:39;;;;;;;9.73;2.42;;;12.10;99.90;;;;;;5027159;28;20043;-63
2021/11/06 12:34:07;;;;;;;4.38;1.80;;;12.00;99.90;;;;;;5030455;28;20042;-64
2021/11/06 12:36:41;;;;;;;14.20;3.55;;;11.90;99.90;;;;;;5032463;28;20408;-65
2021/11/06 12:39:06;;;;;;;8.35;2.22;;;11.90;99.90;;;;;;5032522;28;20037;-62
2021/11/06 12:41:37;;;;;;;8.48;2.45;;;12.00;99.90;;;;;;5036430;28;20152;-61
2021/11/06 12:44:04;;;;;;;;;;;11.90;99.90;;;;;;5033407;28;20122;-60
2021/11/06 12:46:32;;;;;;;7.78;2.42;;;11.90;99.90;;;;;;5034200;28;19912;-61
2021/11/06 12:49:01;;;;;;;10.90;2.22;;;11.90;99.90;;;;;;5026075;28;20033;-64
2021/11/06 12:51:28;;;;;;;7.47;2.88;;;11.90;99.90;;;;;;5031321;28;20110;-60